createdAt,value
2018-07-05T00:02:26.826Z,6.20
2018-07-05T00:05:06.705Z,6.47
2018-07-05T00:07:46.622Z,6.97
2018-07-05T00:10:26.450Z,6.47
2018-07-05T00:13:06.400Z,8.87
2018-07-05T00:15:46.301Z,5.47
2018-07-05T00:18:26.113Z,6.67
2018-07-05T00:21:05.831Z,7.50
2018-07-05T00:23:45.569Z,7.47
2018-07-05T00:26:25.339Z,9.27
2018-07-05T00:29:05.360Z,7.23
2018-07-05T00:31:44.920Z,6.10
2018-07-05T00:34:24.595Z,6.50
2018-07-05T00:37:04.411Z,6.93
2018-07-05T00:39:44.176Z,6.83
2018-07-05T00:42:23.883Z,7.93
2018-07-05T00:45:03.811Z,7.30
2018-07-05T00:47:43.585Z,6.73
2018-07-05T00:50:23.392Z,8.73
2018-07-05T00:53:03.128Z,7.30
2018-07-05T00:55:42.995Z,6.57
2018-07-05T00:58:22.830Z,7.00
2018-07-05T01:01:02.567Z,7.43
2018-07-05T01:03:42.391Z,8.17
2018-07-05T01:06:22.345Z,9.13
2018-07-05T01:09:02.189Z,6.77
2018-07-05T01:11:42.151Z,7.00
2018-07-05T01:14:21.901Z,11.17
2018-07-05T01:17:01.790Z,7.03
2018-07-05T01:19:41.512Z,7.17
2018-07-05T01:22:21.411Z,8.07
2018-07-05T01:25:01.119Z,7.27
2018-07-05T01:27:41.132Z,9.13
2018-07-05T01:30:21.110Z,6.33
2018-07-05T01:33:01.103Z,6.13
2018-07-05T01:35:40.866Z,7.23
2018-07-05T01:38:20.702Z,8.93
2018-07-05T01:41:00.536Z,8.43
2018-07-05T01:43:40.675Z,11.07
2018-07-05T01:46:20.467Z,7.27
2018-07-05T01:49:00.192Z,9.43
2018-07-05T01:51:39.902Z,8.33
2018-07-05T01:54:19.845Z,7.47
2018-07-05T01:56:59.727Z,6.17
2018-07-05T01:59:39.546Z,6.37
2018-07-05T02:02:19.295Z,9.37
2018-07-05T02:04:59.222Z,7.67
2018-07-05T02:07:38.897Z,6.60
2018-07-05T02:10:18.821Z,13.17
2018-07-05T02:12:58.789Z,8.10
2018-07-05T02:15:38.543Z,8.10
2018-07-05T02:18:18.461Z,8.90
2018-07-05T02:20:58.227Z,6.10
2018-07-05T02:23:37.938Z,7.73
2018-07-05T02:26:17.902Z,6.53
2018-07-05T02:28:57.765Z,6.00
2018-07-05T02:31:37.671Z,7.67
2018-07-05T02:34:17.625Z,8.60
2018-07-05T02:36:57.731Z,11.40
2018-07-05T02:39:43.017Z,7.07
2018-07-05T02:42:23.005Z,7.27
2018-07-05T02:45:02.763Z,8.40
2018-07-05T02:47:42.888Z,8.37
2018-07-05T02:50:22.903Z,9.87
2018-07-05T02:53:02.771Z,9.37
2018-07-05T02:55:42.653Z,7.20
2018-07-05T02:58:22.485Z,7.37
2018-07-05T03:01:02.074Z,9.43
2018-07-05T03:03:42.060Z,10.33
2018-07-05T03:06:21.822Z,7.53
2018-07-05T03:09:01.555Z,11.10
2018-07-05T03:11:41.301Z,11.40
2018-07-05T03:14:21.232Z,9.10
2018-07-05T03:17:01.221Z,10.40
2018-07-05T03:19:40.984Z,8.37
2018-07-05T03:22:20.860Z,12.50
2018-07-05T03:25:00.791Z,9.03
2018-07-05T03:27:40.574Z,13.57
2018-07-05T03:30:20.503Z,17.73
2018-07-05T03:33:00.343Z,9.50
2018-07-05T03:35:40.087Z,9.07
2018-07-05T03:38:19.827Z,9.93
2018-07-05T03:40:59.550Z,11.63
2018-07-05T03:43:39.310Z,11.70
2018-07-05T03:46:19.159Z,9.43
2018-07-05T03:48:58.754Z,10.47
2018-07-05T03:51:38.570Z,9.17
2018-07-05T03:54:18.366Z,9.50
2018-07-05T03:56:58.308Z,8.93
2018-07-05T03:59:38.222Z,10.93
2018-07-05T04:02:18.075Z,10.53
2018-07-05T04:04:57.738Z,13.03
2018-07-05T04:07:37.362Z,12.47
2018-07-05T04:10:17.120Z,11.60
2018-07-05T04:12:57.071Z,12.30
2018-07-05T04:15:36.863Z,13.47
2018-07-05T04:18:16.771Z,11.80
2018-07-05T04:20:56.660Z,10.73
2018-07-05T04:23:36.550Z,13.30
2018-07-05T04:26:16.343Z,16.13
2018-07-05T04:28:56.478Z,13.97
2018-07-05T04:31:36.191Z,14.53
2018-07-05T04:34:16.055Z,10.50
2018-07-05T04:36:55.588Z,13.90
2018-07-05T04:39:35.368Z,12.67
2018-07-05T04:42:15.039Z,12.53
2018-07-05T04:44:54.885Z,15.30
2018-07-05T04:47:34.681Z,12.13
2018-07-05T04:50:14.479Z,11.30
2018-07-05T04:52:54.342Z,15.97
2018-07-05T04:55:33.995Z,15.07
2018-07-05T04:58:13.615Z,12.83
2018-07-05T05:00:53.553Z,16.77
2018-07-05T05:03:33.411Z,12.83
2018-07-05T05:06:13.554Z,10.67
2018-07-05T05:08:53.393Z,8.63
2018-07-05T05:11:33.266Z,10.57
2018-07-05T05:14:13.164Z,11.90
2018-07-05T05:16:53.033Z,11.33
2018-07-05T05:19:32.722Z,13.93
2018-07-05T05:22:12.640Z,11.97
2018-07-05T05:24:52.596Z,9.00
2018-07-05T05:27:32.721Z,16.47
2018-07-05T05:30:12.593Z,11.87
2018-07-05T05:32:52.602Z,12.10
2018-07-05T05:35:32.406Z,13.87
2018-07-05T05:38:12.413Z,11.37
2018-07-05T05:40:52.246Z,7.53
2018-07-05T05:43:32.147Z,11.97
2018-07-05T05:46:11.831Z,13.03
2018-07-05T05:48:51.880Z,11.07
2018-07-05T05:51:31.987Z,13.93
2018-07-05T05:54:12.164Z,15.93
2018-07-05T05:56:52.222Z,11.33
2018-07-05T05:59:32.160Z,13.10
2018-07-05T06:02:12.114Z,12.13
2018-07-05T06:04:52.160Z,9.53
2018-07-05T06:07:32.019Z,9.73
2018-07-05T06:10:12.143Z,18.13
2018-07-05T06:12:52.035Z,11.90
2018-07-05T06:15:32.049Z,11.00
2018-07-05T06:18:11.896Z,10.40
2018-07-05T06:20:51.731Z,9.07
2018-07-05T06:23:31.674Z,11.13
2018-07-05T06:26:11.639Z,14.03
2018-07-05T06:28:51.726Z,9.73
2018-07-05T06:31:31.627Z,11.67
2018-07-05T06:34:11.548Z,12.27
2018-07-05T06:36:51.732Z,14.00
2018-07-05T06:39:31.596Z,12.53
2018-07-05T06:42:11.523Z,9.13
2018-07-05T06:44:51.387Z,12.83
2018-07-05T06:47:31.179Z,14.70
2018-07-05T06:50:05.018Z,13.63
2018-07-05T06:52:45.164Z,13.47
2018-07-05T06:55:24.958Z,8.17
2018-07-05T06:58:04.707Z,14.07
2018-07-05T07:00:44.559Z,9.30
2018-07-05T07:03:24.774Z,8.53
2018-07-05T07:06:04.630Z,7.00
2018-07-05T07:08:44.846Z,9.60
2018-07-05T07:11:24.743Z,9.37
2018-07-05T07:30:54.369Z,7.87
2018-07-05T07:33:34.246Z,7.93
2018-07-05T07:36:14.187Z,8.90
2018-07-05T07:38:54.037Z,10.57
2018-07-05T07:41:34.140Z,8.23
2018-07-05T07:44:01.547Z,8.03
2018-07-05T07:46:28.944Z,11.17
2018-07-05T07:48:56.518Z,13.90
2018-07-05T07:51:24.599Z,10.53
2018-07-05T07:53:52.100Z,8.40
2018-07-05T07:56:19.728Z,9.80
2018-07-05T07:58:47.101Z,5.63
2018-07-05T08:01:14.489Z,7.73
2018-07-05T08:03:42.307Z,6.67
2018-07-05T08:06:09.878Z,7.60
2018-07-05T08:08:37.271Z,7.87
2018-07-05T08:11:04.926Z,10.63
2018-07-05T08:13:32.300Z,5.13
2018-07-05T08:15:59.645Z,4.13
2018-07-05T08:18:27.290Z,6.13
2018-07-05T08:20:54.656Z,4.53
2018-07-05T08:23:22.047Z,6.33
2018-07-05T08:25:49.569Z,4.27
2018-07-05T08:28:16.927Z,6.03
2018-07-05T08:30:44.306Z,7.97
2018-07-05T08:33:11.863Z,7.77
2018-07-05T08:35:39.285Z,6.47
2018-07-05T08:38:06.656Z,4.67
2018-07-05T08:40:34.187Z,8.93
2018-07-05T08:43:01.563Z,5.73
2018-07-05T08:45:28.939Z,8.77
2018-07-05T08:47:56.522Z,5.90
2018-07-05T08:50:23.863Z,8.13
2018-07-05T08:52:51.542Z,9.77
2018-07-05T08:55:19.084Z,3.53
2018-07-05T08:57:46.447Z,3.20
2018-07-05T09:00:13.857Z,5.70
2018-07-05T09:02:41.403Z,2.67
2018-07-05T09:05:08.814Z,5.20
2018-07-05T09:07:36.130Z,5.93
2018-07-05T09:10:03.544Z,3.03
2018-07-05T09:12:30.921Z,3.80
2018-07-05T09:14:58.577Z,4.50
2018-07-05T09:17:26.222Z,4.67
2018-07-05T09:19:53.543Z,7.87
2018-07-05T09:22:20.899Z,5.93
2018-07-05T09:24:48.448Z,5.67
2018-07-05T09:27:15.817Z,4.27
2018-07-05T09:29:43.166Z,4.20
2018-07-05T09:32:10.741Z,3.63
2018-07-05T09:34:38.132Z,8.00
2018-07-05T09:37:05.522Z,9.13
2018-07-05T09:39:33.124Z,3.77
2018-07-05T09:42:00.488Z,7.50
2018-07-05T09:44:28.476Z,7.00
2018-07-05T09:46:56.182Z,4.93
2018-07-05T09:49:23.599Z,6.73
2018-07-05T09:51:51.021Z,3.90
2018-07-05T09:54:18.624Z,7.03
2018-07-05T09:56:45.991Z,6.20
2018-07-05T09:59:13.353Z,7.30
2018-07-05T10:01:40.898Z,5.30
2018-07-05T10:04:08.263Z,8.40
2018-07-05T10:06:35.641Z,5.33
2018-07-05T10:25:51.326Z,5.37
2018-07-05T10:28:18.720Z,6.67
2018-07-05T10:30:58.470Z,2.83
2018-07-05T10:33:38.328Z,6.42
2018-07-05T10:53:08.101Z,4.33
2018-07-05T10:55:47.904Z,4.25
2018-07-05T10:58:27.704Z,4.97
2018-07-05T11:01:07.572Z,3.35
2018-07-05T11:03:47.438Z,7.70
2018-07-05T11:23:16.488Z,3.55
2018-07-05T11:25:56.395Z,4.05
2018-07-05T11:28:36.220Z,3.17
2018-07-05T11:31:15.934Z,5.30
2018-07-05T11:50:45.402Z,4.00
2018-07-05T11:53:25.241Z,6.83
2018-07-05T11:56:05.130Z,3.37
2018-07-05T11:58:45.082Z,4.47
2018-07-05T12:18:13.780Z,3.58
2018-07-05T12:20:53.451Z,3.67
2018-07-05T12:23:33.354Z,2.90
2018-07-05T12:26:13.333Z,4.87
2018-07-05T12:28:53.306Z,4.30
2018-07-05T12:31:33.061Z,4.25
2018-07-05T12:34:13.030Z,3.77
2018-07-05T12:36:52.791Z,5.58
2018-07-05T12:39:32.432Z,3.30
2018-07-05T12:42:12.167Z,5.97
2018-07-05T12:44:53.436Z,5.78
2018-07-05T12:47:34.273Z,3.90
2018-07-05T12:50:14.150Z,6.92
2018-07-05T12:52:53.864Z,3.98
2018-07-05T12:55:33.842Z,3.95
2018-07-05T12:58:13.898Z,5.55
2018-07-05T13:00:53.800Z,5.42
2018-07-05T13:03:33.479Z,6.17
2018-07-05T13:06:13.513Z,5.90
2018-07-05T13:08:53.143Z,5.28
2018-07-05T13:11:32.900Z,3.92
2018-07-05T13:14:12.718Z,6.15
2018-07-05T13:16:52.613Z,4.70
2018-07-05T13:19:32.227Z,5.85
2018-07-05T13:22:12.292Z,3.80
2018-07-05T13:24:52.194Z,4.53
2018-07-05T13:27:32.264Z,3.70
2018-07-05T13:30:12.118Z,5.37
2018-07-05T13:32:52.060Z,5.20
2018-07-05T13:35:31.710Z,4.75
2018-07-05T13:38:11.357Z,7.60
2018-07-05T13:40:51.032Z,6.20
2018-07-05T13:43:31.033Z,5.08
2018-07-05T13:46:10.785Z,8.60
2018-07-05T13:48:50.735Z,4.08
2018-07-05T13:51:30.618Z,4.87
2018-07-05T13:54:10.404Z,6.30
2018-07-05T13:56:50.069Z,3.33
2018-07-05T13:59:29.812Z,3.25
2018-07-05T14:02:09.416Z,5.47
2018-07-05T14:04:49.221Z,6.35
2018-07-05T14:07:28.921Z,6.53
2018-07-05T14:10:08.695Z,9.15
2018-07-05T14:12:48.449Z,5.70
2018-07-05T14:15:28.439Z,3.12
2018-07-05T14:18:08.211Z,9.90
2018-07-05T14:20:49.864Z,2.77
2018-07-05T14:23:29.700Z,3.80
2018-07-05T14:26:09.387Z,4.72
2018-07-05T14:28:49.556Z,3.20
2018-07-05T14:31:29.459Z,3.27
2018-07-05T14:34:09.214Z,5.58
2018-07-05T14:36:49.059Z,6.00
2018-07-05T14:39:28.913Z,10.88
2018-07-05T14:42:08.822Z,5.30
2018-07-05T14:44:48.500Z,9.50
2018-07-05T15:04:15.754Z,6.05
2018-07-05T15:06:55.540Z,5.12
2018-07-05T15:09:35.235Z,3.77
2018-07-05T15:12:15.309Z,4.75
2018-07-05T15:14:55.189Z,8.10
2018-07-05T15:17:34.951Z,9.30
2018-07-05T15:20:14.867Z,4.92
2018-07-05T15:22:54.880Z,4.70
2018-07-05T15:25:34.754Z,3.42
2018-07-05T15:28:14.577Z,5.28
2018-07-05T15:30:54.450Z,4.55
2018-07-05T15:33:34.365Z,4.12
2018-07-05T15:36:14.053Z,4.20
2018-07-05T15:38:53.850Z,3.22
2018-07-05T15:58:22.315Z,3.35
2018-07-05T16:01:02.132Z,8.53
2018-07-05T16:03:41.996Z,7.67
2018-07-05T16:26:04.101Z,5.90
2018-07-05T16:28:43.891Z,5.40
2018-07-05T16:31:23.666Z,5.45
2018-07-05T16:34:03.475Z,7.30
2018-07-05T16:36:43.279Z,3.65
2018-07-05T16:39:22.895Z,4.85
2018-07-05T16:42:02.616Z,6.42
2018-07-05T16:44:42.356Z,7.20
2018-07-05T16:47:22.139Z,10.08
2018-07-05T16:50:02.098Z,5.78
2018-07-05T16:52:41.970Z,6.85
2018-07-05T16:55:21.834Z,5.85
2018-07-05T16:58:01.606Z,5.60
2018-07-05T17:17:30.113Z,7.87
2018-07-05T17:20:10.178Z,3.98
2018-07-05T17:22:50.067Z,7.10
2018-07-05T17:25:29.963Z,4.22
2018-07-05T17:28:09.827Z,5.40
2018-07-05T17:30:49.813Z,7.87
2018-07-05T17:33:29.572Z,5.33
2018-07-05T17:36:09.547Z,6.97
2018-07-05T17:38:49.455Z,6.42
2018-07-05T17:41:29.166Z,5.65
2018-07-05T17:44:09.001Z,6.67
2018-07-05T17:46:48.928Z,3.67
2018-07-05T17:49:28.946Z,6.45
2018-07-05T17:52:08.753Z,3.98
2018-07-05T17:54:48.440Z,6.15
2018-07-05T17:57:28.063Z,4.87
2018-07-05T18:00:07.814Z,4.22
2018-07-05T18:02:47.753Z,7.62
2018-07-05T18:05:27.520Z,6.80
2018-07-05T18:08:07.610Z,10.03
2018-07-05T18:10:47.393Z,5.78
2018-07-05T18:13:27.538Z,6.60
2018-07-05T18:16:07.427Z,5.65
2018-07-05T18:18:47.264Z,6.58
2018-07-05T18:21:26.966Z,9.17
2018-07-05T18:24:07.060Z,9.60
2018-07-05T18:26:46.856Z,8.50
2018-07-05T18:29:26.632Z,9.73
2018-07-05T18:32:06.391Z,4.07
2018-07-05T18:34:46.187Z,5.73
2018-07-05T18:37:26.105Z,7.37
2018-07-05T18:40:06.209Z,5.90
2018-07-05T18:42:45.990Z,8.27
2018-07-05T18:45:25.912Z,7.73
2018-07-05T18:48:05.824Z,8.57
2018-07-05T18:50:45.807Z,6.57
2018-07-05T18:53:25.816Z,6.93
2018-07-05T18:56:05.694Z,5.97
2018-07-05T18:58:45.563Z,8.70
2018-07-05T19:01:25.575Z,7.17
2018-07-05T19:04:05.441Z,7.77
2018-07-05T19:06:45.153Z,8.23
2018-07-05T19:09:24.938Z,12.77
2018-07-05T19:12:04.974Z,10.70
2018-07-05T19:14:44.914Z,6.90
2018-07-05T19:17:25.091Z,6.03
2018-07-05T19:20:04.876Z,7.30
2018-07-05T19:22:44.733Z,6.73
2018-07-05T19:25:24.532Z,7.87
2018-07-05T19:28:04.442Z,9.03
2018-07-05T19:30:44.280Z,11.27
2018-07-05T19:33:24.304Z,7.17
2018-07-05T19:36:04.134Z,6.37
2018-07-05T19:38:44.229Z,7.50
2018-07-05T19:41:24.016Z,9.90
2018-07-05T19:44:04.143Z,7.97
2018-07-05T19:49:36.599Z,10.80
2018-07-05T19:52:16.624Z,15.63
2018-07-05T19:54:56.671Z,18.83
2018-07-05T19:57:36.398Z,22.37
2018-07-05T20:00:16.422Z,11.33
2018-07-05T20:02:56.246Z,13.57
2018-07-05T20:05:36.170Z,13.63
2018-07-05T20:08:16.174Z,10.87
2018-07-05T20:10:58.217Z,13.13
2018-07-05T20:13:39.080Z,13.47
2018-07-05T20:16:19.226Z,10.40
2018-07-05T20:18:59.474Z,7.87
2018-07-05T20:21:39.677Z,8.30
2018-07-05T20:24:19.768Z,10.20
2018-07-05T20:26:59.648Z,13.70
2018-07-05T20:29:39.615Z,7.20
2018-07-05T20:32:19.320Z,6.63
2018-07-05T20:34:59.227Z,6.80
2018-07-05T20:37:39.207Z,7.93
2018-07-05T20:40:19.135Z,8.70
2018-07-05T20:42:59.083Z,7.27
2018-07-05T20:45:38.964Z,6.90
2018-07-05T20:48:18.839Z,9.70
2018-07-05T20:50:58.674Z,10.50
2018-07-05T20:53:38.572Z,9.97
2018-07-05T20:56:18.494Z,10.53
2018-07-05T20:58:58.477Z,9.97
2018-07-05T21:01:38.511Z,10.40
2018-07-05T21:04:18.785Z,9.13
2018-07-05T21:06:58.569Z,10.47
2018-07-05T21:09:38.457Z,10.70
2018-07-05T21:12:18.318Z,12.87
2018-07-05T21:14:58.257Z,9.37
2018-07-05T21:17:38.249Z,11.33
2018-07-05T21:20:18.176Z,9.13
2018-07-05T21:22:57.931Z,8.53
2018-07-05T21:25:37.938Z,6.50
2018-07-05T21:28:17.728Z,8.43
2018-07-05T21:30:57.854Z,7.57
2018-07-05T21:33:37.704Z,10.00
2018-07-05T21:36:17.817Z,10.63
2018-07-05T21:38:57.514Z,14.17
2018-07-05T21:41:37.479Z,9.50
2018-07-05T21:44:17.317Z,7.83
2018-07-05T21:46:57.214Z,8.57
2018-07-05T21:49:37.104Z,11.30
2018-07-05T21:52:17.094Z,8.67
2018-07-05T21:54:56.990Z,9.40
2018-07-05T21:57:37.011Z,9.00
2018-07-05T22:00:17.059Z,10.03
2018-07-05T22:02:57.071Z,8.60
2018-07-05T22:05:36.980Z,7.60
2018-07-05T22:08:16.831Z,7.47
2018-07-05T22:10:56.528Z,6.97
2018-07-05T22:13:36.448Z,11.17
2018-07-05T22:16:16.284Z,11.63
2018-07-05T22:19:01.775Z,8.20
2018-07-05T22:21:46.911Z,14.57
2018-07-05T22:24:32.191Z,9.33
2018-07-05T22:27:17.326Z,13.57
2018-07-05T22:30:02.516Z,12.17
2018-07-05T22:32:42.276Z,12.77
2018-07-05T22:35:22.104Z,11.27
2018-07-05T22:38:01.860Z,12.93
2018-07-05T22:40:41.999Z,9.77
2018-07-05T22:43:21.812Z,9.47
2018-07-05T22:46:01.643Z,10.87
2018-07-05T22:48:41.496Z,11.13
2018-07-05T22:51:21.580Z,8.73
2018-07-05T22:54:01.446Z,11.17
2018-07-05T22:56:41.542Z,10.53
2018-07-05T22:59:21.280Z,10.40
2018-07-05T23:02:01.179Z,10.97
2018-07-05T23:04:40.968Z,10.50
2018-07-05T23:07:20.850Z,11.30
2018-07-05T23:10:00.626Z,8.03
2018-07-05T23:12:40.767Z,7.50
2018-07-05T23:15:20.783Z,8.00
2018-07-05T23:18:00.769Z,8.60
2018-07-05T23:20:40.640Z,9.60
2018-07-05T23:23:20.557Z,5.97
2018-07-05T23:26:00.405Z,7.93
2018-07-05T23:28:40.352Z,6.20
2018-07-05T23:31:20.126Z,6.03
2018-07-05T23:34:00.122Z,5.97
2018-07-05T23:36:40.120Z,6.70
2018-07-05T23:39:19.868Z,7.53
2018-07-05T23:41:59.702Z,7.10
2018-07-05T23:44:39.577Z,6.77
2018-07-05T23:47:19.425Z,6.87
2018-07-05T23:49:59.304Z,7.60
2018-07-05T23:52:39.277Z,6.27
2018-07-05T23:55:19.388Z,5.60
2018-07-05T23:57:59.111Z,7.03
